Time;durP1;ratioP1;P1;durP2;ratioP2;P2;SDS_P1;SDS_P2;PMS_P1;PMS_P2;Temp;Humidity;BMP_temperature;BMP_pressure;BME280_temperature;BME280_humidity;BME280_pressure;Samples;Min_cycle;Max_cycle;Signal;HPM_P1;HPM_P2
2023/09/23 00:01:34;;;;;;;0.80;0.53;;;;;;;11.43;100.00;99892.59;4982982;28;20204;-69
2023/09/23 00:04:01;;;;;;;0.70;0.70;;;;;;;11.38;100.00;99899.66;4984395;28;20242;-72
2023/09/23 00:06:28;;;;;;;0.67;0.60;;;;;;;11.26;100.00;99899.63;4984357;28;20224;-69
2023/09/23 00:08:55;;;;;;;0.70;0.70;;;;;;;11.27;100.00;99902.28;4980715;28;20719;-69
2023/09/23 00:11:22;;;;;;;0.70;0.70;;;;;;;11.14;100.00;99916.34;5001216;28;20217;-70
2023/09/23 00:13:48;;;;;;;0.70;0.60;;;;;;;11.01;100.00;99914.53;4982328;28;20309;-69
2023/09/23 00:16:15;;;;;;;0.60;0.60;;;;;;;11.04;100.00;99922.50;4983736;28;20209;-71
2023/09/23 00:18:43;;;;;;;1.00;0.63;;;;;;;11.01;100.00;99914.53;4983774;28;20206;-71
2023/09/23 00:21:12;;;;;;;0.80;0.80;;;;;;;10.97;100.00;99913.66;4981208;28;20732;-68
2023/09/23 00:23:39;;;;;;;0.60;0.60;;;;;;;11.02;100.00;99915.44;4985168;28;20715;-69
2023/09/23 00:26:10;;;;;;;0.60;0.60;;;;;;;10.96;100.00;99918.94;4982845;28;20689;-70
2023/09/23 00:28:36;;;;;;;0.60;0.60;;;;;;;11.03;100.00;99919.84;4983748;28;20303;-70
2023/09/23 00:31:11;;;;;;;0.60;0.60;;;;;;;10.96;100.00;99919.84;4981533;28;20270;-70
2023/09/23 00:33:38;;;;;;;0.87;0.67;;;;;;;10.95;100.00;99918.06;4984661;28;20536;-69
2023/09/23 00:36:07;;;;;;;1.00;0.73;;;;;;;11.08;100.00;99931.34;4984585;28;20595;-71
2023/09/23 00:38:33;;;;;;;1.37;0.70;;;;;;;11.13;100.00;99927.84;4985494;28;20211;-70
2023/09/23 00:41:01;;;;;;;0.57;0.57;;;;;;;11.20;100.00;99931.38;4977415;28;20233;-71
2023/09/23 00:43:27;;;;;;;0.60;0.60;;;;;;;11.25;100.00;99932.31;4980903;28;20276;-71
2023/09/23 00:45:58;;;;;;;0.97;0.83;;;;;;;11.13;100.00;99929.59;4980135;28;20235;-70
2023/09/23 00:48:25;;;;;;;0.60;0.60;;;;;;;11.02;100.00;99934.88;4985604;28;20324;-70
2023/09/23 00:50:56;;;;;;;2.60;0.73;;;;;;;11.05;100.00;99937.53;4987411;28;20200;-71
2023/09/23 00:53:25;;;;;;;0.43;0.43;;;;;;;11.02;100.00;99940.16;4980292;28;20229;-71
2023/09/23 00:55:52;;;;;;;0.80;0.50;;;;;;;10.91;100.00;99942.78;4976857;28;20759;-69
2023/09/23 00:58:21;;;;;;;1.10;0.67;;;;;;;10.79;100.00;99937.38;4979627;28;20199;-71
2023/09/23 01:00:51;;;;;;;0.60;0.60;;;;;;;10.78;100.00;99947.97;4999894;28;20202;-72
2023/09/23 01:03:19;;;;;;;0.80;0.80;;;;;;;10.79;100.00;99949.75;4982649;28;20229;-71
2023/09/23 01:05:48;;;;;;;0.70;0.70;;;;;;;10.78;100.00;99948.88;4979637;28;20207;-73
2023/09/23 01:08:22;;;;;;;5.50;0.73;;;;;;;10.71;100.00;99940.88;4975566;28;20219;-70
2023/09/23 01:10:49;;;;;;;2.30;0.80;;;;;;;10.77;100.00;99949.75;4978572;28;20208;-71
2023/09/23 01:13:20;;;;;;;0.60;0.50;;;;;;;10.76;100.00;99947.97;4984554;28;20233;-71
2023/09/23 01:15:46;;;;;;;1.10;0.60;;;;;;;10.67;100.00;99948.81;4981561;28;20695;-70
2023/09/23 01:18:13;;;;;;;0.83;0.70;;;;;;;10.60;100.00;99951.41;4980160;28;20253;-72
2023/09/23 01:20:42;;;;;;;0.60;0.60;;;;;;;10.50;100.00;99952.25;4976604;28;20785;-71
2023/09/23 01:23:10;;;;;;;0.70;0.70;;;;;;;10.51;100.00;99944.31;4977735;28;20198;-72
2023/09/23 01:25:37;;;;;;;1.13;0.73;;;;;;;10.61;100.00;99954.06;4983539;28;20205;-73
2023/09/23 01:28:08;;;;;;;0.80;0.63;;;;;;;10.59;100.00;99952.28;4981328;28;20228;-71
2023/09/23 01:30:35;;;;;;;1.00;0.90;;;;;;;10.65;100.00;99944.38;4978536;28;20208;-73
2023/09/23 01:33:07;;;;;;;2.30;1.10;;;;;;;10.67;100.00;99946.16;4975000;28;20212;-74
2023/09/23 01:35:34;;;;;;;1.00;0.90;;;;;;;10.70;100.00;99955.88;4983656;28;20208;-74
2023/09/23 01:38:03;;;;;;;0.90;0.90;;;;;;;10.68;100.00;99958.53;4981061;28;20207;-73
2023/09/23 01:40:31;;;;;;;1.10;0.87;;;;;;;10.52;100.00;99954.03;4984281;28;20488;-73
2023/09/23 01:42:58;;;;;;;1.60;1.07;;;;;;;10.42;100.00;99961.91;4988969;28;20755;-72
2023/09/23 01:45:25;;;;;;;1.23;1.00;;;;;;;10.45;100.00;99956.63;4984926;28;20220;-72
2023/09/23 01:47:55;;;;;;;1.53;1.23;;;;;;;10.57;100.00;99965.53;4979738;28;20215;-74
2023/09/23 01:50:26;;;;;;;1.33;1.00;;;;;;;10.72;100.00;99955.91;4981689;28;20263;-79
2023/09/23 01:52:59;;;;;;;1.10;1.00;;;;;;;10.72;100.00;99969.13;4985457;28;20211;-79
2023/09/23 01:55:26;;;;;;;1.10;1.00;;;;;;;10.46;100.00;99963.69;4984716;28;20711;-77
2023/09/23 01:57:52;;;;;;;4.10;1.00;;;;;;;10.45;100.00;99975.16;4982853;28;20205;-75
2023/09/23 02:00:24;;;;;;;2.40;1.10;;;;;;;10.31;100.00;99975.03;4979851;28;20208;-78
2023/09/23 02:02:57;;;;;;;1.17;1.00;;;;;;;10.23;100.00;99976.75;4976214;28;20293;-79
2023/09/23 02:05:27;;;;;;;1.20;1.10;;;;;;;10.19;100.00;99983.72;4975913;28;20209;-78
2023/09/23 02:07:55;;;;;;;2.53;1.10;;;;;;;10.29;100.00;99992.66;4981330;28;20203;-79
2023/09/23 02:10:24;;;;;;;1.53;1.13;;;;;;;10.13;100.00;99991.63;4979272;28;20205;-77
2023/09/23 02:12:50;;;;;;;1.67;1.27;;;;;;;9.98;100.00;100009.97;4980589;28;20215;-77
2023/09/23 02:15:17;;;;;;;1.30;1.20;;;;;;;9.84;100.00;100007.22;4975691;28;20228;-80
2023/09/23 02:17:44;;;;;;;1.37;1.13;;;;;;;9.72;100.00;100010.63;4977080;28;20285;-79
2023/09/23 02:22:48;;;;;;;1.20;1.00;;;;;;;9.64;100.00;100016.72;4978491;28;20234;-77
2023/09/23 02:25:16;;;;;;;1.53;1.13;;;;;;;9.71;100.00;100014.16;4976098;28;20252;-77
2023/09/23 02:27:44;;;;;;;1.90;1.13;;;;;;;9.69;100.00;100017.66;4971114;28;20237;-77
2023/09/23 02:30:12;;;;;;;1.53;1.30;;;;;;;9.57;100.00;100026.31;4983967;28;20317;-78
2023/09/23 02:32:40;;;;;;;1.80;1.40;;;;;;;9.43;100.00;100026.16;4985868;28;20203;-76
2023/09/23 02:35:11;;;;;;;4.40;1.30;;;;;;;9.35;100.00;100029.56;4983127;28;20254;-76
2023/09/23 02:37:39;;;;;;;1.90;1.07;;;;;;;9.30;100.00;100036.56;4977228;28;20334;-76
2023/09/23 02:40:11;;;;;;;3.07;1.07;;;;;;;9.28;100.00;100033.91;4984870;28;20238;-77
2023/09/23 02:42:42;;;;;;;1.17;0.83;;;;;;;9.17;100.00;100040.78;4997789;28;20213;-77
2023/09/23 02:45:09;;;;;;;1.50;1.10;;;;;;;9.18;100.00;100037.25;4982494;28;20226;-78
2023/09/23 02:47:37;;;;;;;2.30;1.00;;;;;;;9.17;100.00;100038.13;4979903;28;20203;-79
2023/09/23 02:50:13;;;;;;;1.30;1.00;;;;;;;9.26;100.00;100048.84;4982117;28;20219;-77
2023/09/23 02:52:49;;;;;;;1.27;1.00;;;;;;;9.23;100.00;100056.75;4986416;28;20206;-79
2023/09/23 02:55:19;;;;;;;1.97;0.90;;;;;;;9.25;100.00;100055.00;4980649;28;20228;-78
2023/09/23 02:57:49;;;;;;;2.87;0.97;;;;;;;9.32;100.00;100058.59;4977464;28;20675;-77
2023/09/23 03:00:17;;;;;;;1.00;0.90;;;;;;;9.29;100.00;100056.81;4979781;28;20202;-78
2023/09/23 03:02:45;;;;;;;3.20;1.30;;;;;;;9.25;100.00;100065.56;4981714;28;20327;-76
2023/09/23 03:05:16;;;;;;;1.37;1.03;;;;;;;9.22;100.00;100051.44;4980166;28;20224;-71
2023/09/23 03:07:50;;;;;;;1.17;1.00;;;;;;;9.07;100.00;100054.72;4981001;28;20204;-70
2023/09/23 03:10:29;;;;;;;1.60;1.20;;;;;;;9.06;100.00;100063.53;4977399;28;20220;-79
2023/09/23 03:13:02;;;;;;;2.70;1.00;;;;;;;9.03;100.00;100048.53;4984979;28;20209;-79
2023/09/23 03:16:11;;;;;;;1.10;0.93;;;;;;;9.11;100.00;100078.56;4983308;28;20264;-79
2023/09/23 03:18:44;;;;;;;1.13;0.90;;;;;;;8.93;100.00;100075.69;4974008;28;20203;-75
2023/09/23 03:21:11;;;;;;;1.00;0.83;;;;;;;8.83;100.00;100076.41;4977458;28;20206;-75
2023/09/23 03:23:39;;;;;;;2.90;1.00;;;;;;;8.83;100.00;100097.53;4978666;28;20285;-75
2023/09/23 03:26:08;;;;;;;1.73;1.23;;;;;;;8.91;100.00;100095.00;4983827;28;21601;-72
2023/09/23 03:28:36;;;;;;;2.33;1.50;;;;;;;8.86;100.00;100100.22;4986074;28;20236;-72
2023/09/23 03:31:03;;;;;;;2.13;1.30;;;;;;;9.01;100.00;100110.13;4982002;28;20292;-71
2023/09/23 03:33:29;;;;;;;2.73;1.60;;;;;;;9.11;100.00;100112.03;4981053;28;20748;-69
2023/09/23 03:35:56;;;;;;;1.47;1.33;;;;;;;9.25;100.00;100118.41;4976863;28;20625;-71
2023/09/23 03:38:22;;;;;;;1.70;1.33;;;;;;;9.41;100.00;100114.22;4983867;28;20207;-70
2023/09/23 03:40:56;;;;;;;1.53;1.30;;;;;;;9.55;100.00;100110.00;4999919;28;20538;-75
2023/09/23 03:43:24;;;;;;;1.50;1.40;;;;;;;9.61;100.00;100111.84;4986496;28;20690;-77
2023/09/23 03:45:51;;;;;;;1.73;1.40;;;;;;;9.54;100.00;100105.56;4995963;28;20208;-78
2023/09/23 03:48:18;;;;;;;1.50;1.40;;;;;;;9.57;100.00;100120.59;4980995;28;20197;-80
2023/09/23 03:50:49;;;;;;;2.63;1.60;;;;;;;9.51;100.00;100118.75;4985393;28;20234;-75
2023/09/23 03:55:43;;;;;;;1.37;1.20;;;;;;;9.47;100.00;100131.91;5035030;23;20240;-72
2023/09/23 03:58:09;;;;;;;1.87;1.20;;;;;;;9.58;100.00;100131.19;5016963;28;20199;-72
2023/09/23 04:00:35;;;;;;;1.80;1.23;;;;;;;9.74;100.00;100132.28;5017019;28;20203;-72
2023/09/23 04:03:02;;;;;;;1.63;1.40;;;;;;;9.89;100.00;100129.81;5007589;28;20655;-71
2023/09/23 04:05:31;;;;;;;1.80;1.40;;;;;;;9.98;100.00;100135.22;5005899;28;20346;-71
2023/09/23 04:07:58;;;;;;;2.57;1.30;;;;;;;10.07;100.00;100138.84;5009506;28;20206;-72
2023/09/23 04:10:24;;;;;;;2.53;1.43;;;;;;;10.16;100.00;100133.66;5007044;28;20216;-73
2023/09/23 04:12:52;;;;;;;2.80;1.50;;;;;;;10.25;100.00;100134.66;5009486;28;20210;-73
2023/09/23 04:15:19;;;;;;;3.23;1.60;;;;;;;10.33;100.00;100145.31;5007018;28;20219;-78
2023/09/23 04:17:45;;;;;;;4.03;1.67;;;;;;;10.39;100.00;100137.44;5009153;28;20221;-76
2023/09/23 04:20:14;;;;;;;2.30;2.00;;;;;;;10.39;100.00;100139.19;5008927;28;20196;-78
2023/09/23 04:22:42;;;;;;;5.40;2.00;;;;;;;10.41;100.00;100141.03;5007630;28;20209;-76
2023/09/23 04:25:10;;;;;;;2.47;1.77;;;;;;;10.39;100.00;100152.44;5009126;28;20252;-79
2023/09/23 04:27:37;;;;;;;1.73;1.57;;;;;;;10.34;100.00;100144.47;4990934;28;20198;-80
2023/09/23 04:30:11;;;;;;;2.77;1.80;;;;;;;10.30;100.00;100151.47;5008044;28;20314;-82
2023/09/23 04:32:40;;;;;;;2.40;1.40;;;;;;;10.25;100.00;100152.31;4987473;28;20227;-81
2023/09/23 04:35:16;;;;;;;5.23;1.70;;;;;;;10.28;100.00;100161.16;5007218;28;20610;-80
2023/09/23 04:37:42;;;;;;;3.63;1.70;;;;;;;10.33;100.00;100161.22;5006426;28;20291;-82
2023/09/23 04:40:10;;;;;;;2.00;1.53;;;;;;;10.35;100.00;100164.75;5008664;28;20203;-80
2023/09/23 04:42:39;;;;;;;4.00;1.60;;;;;;;10.31;100.00;100155.91;5008634;28;20213;-82
2023/09/23 04:45:07;;;;;;;2.67;1.50;;;;;;;10.31;100.00;100160.31;5016952;28;20610;-79
2023/09/23 04:47:35;;;;;;;2.93;1.80;;;;;;;10.29;100.00;100148.81;5007667;28;20219;-81
2023/09/23 04:50:05;;;;;;;2.17;1.60;;;;;;;10.22;100.00;100158.47;5008726;28;20243;-80
2023/09/23 04:52:32;;;;;;;2.47;1.60;;;;;;;10.10;100.00;100158.28;5007784;28;20587;-79
2023/09/23 04:54:58;;;;;;;1.57;1.47;;;;;;;10.00;100.00;100166.97;5002454;28;20228;-76
2023/09/23 04:57:25;;;;;;;2.13;1.90;;;;;;;9.96;100.00;100187.22;5019661;28;20227;-75
2023/09/23 04:59:52;;;;;;;2.43;1.53;;;;;;;10.08;100.00;100188.25;5007126;28;20201;-75
2023/09/23 05:02:19;;;;;;;2.50;1.60;;;;;;;10.22;100.00;100181.38;5008473;28;20212;-76
2023/09/23 05:04:46;;;;;;;3.70;1.40;;;;;;;10.31;100.00;100197.38;5008565;28;20217;-78
2023/09/23 05:07:13;;;;;;;2.20;1.60;;;;;;;10.37;100.00;100184.19;5004202;28;20200;-76
2023/09/23 05:09:40;;;;;;;1.70;1.40;;;;;;;10.48;100.00;100190.50;5007949;28;20270;-80
2023/09/23 05:12:09;;;;;;;3.00;1.77;;;;;;;10.61;100.00;100200.34;5007364;28;20238;-77
2023/09/23 05:14:35;;;;;;;2.80;1.60;;;;;;;10.64;100.00;100203.03;5006299;28;20251;-81
2023/09/23 05:17:05;;;;;;;2.17;1.50;;;;;;;10.57;100.00;100202.94;5007561;28;20207;-81
2023/09/23 05:19:32;;;;;;;2.63;1.60;;;;;;;10.60;100.00;100208.28;5007156;28;20197;-81
2023/09/23 05:21:59;;;;;;;3.33;1.77;;;;;;;10.60;100.00;100211.81;5006921;28;20209;-82
2023/09/23 05:24:26;;;;;;;2.27;1.57;;;;;;;10.60;100.00;100213.56;5008776;28;20228;-81
2023/09/23 05:26:55;;;;;;;2.60;1.60;;;;;;;10.62;100.00;100220.66;5007612;28;20213;-80
2023/09/23 05:29:22;;;;;;;2.90;1.87;;;;;;;10.71;100.00;100225.16;4986371;28;20223;-81
2023/09/23 05:31:49;;;;;;;3.33;1.47;;;;;;;10.78;100.00;100228.75;5006730;28;20227;-80
2023/09/23 05:34:18;;;;;;;3.47;1.70;;;;;;;10.88;100.00;100244.78;5007461;28;20227;-80
2023/09/23 05:36:48;;;;;;;1.90;1.40;;;;;;;10.96;100.00;100239.53;5006935;28;20205;-80
2023/09/23 05:39:18;;;;;;;3.97;1.90;;;;;;;11.03;100.00;100235.19;5002511;28;20206;-82
2023/09/23 05:41:49;;;;;;;1.83;1.50;;;;;;;11.12;100.00;100248.50;5008284;28;20208;-81
2023/09/23 05:44:16;;;;;;;2.10;1.40;;;;;;;11.18;100.00;100244.13;4983684;28;20318;-80
2023/09/23 05:46:43;;;;;;;2.57;1.70;;;;;;;11.24;100.00;100257.47;5007911;28;20887;-80
2023/09/23 05:49:12;;;;;;;3.70;1.60;;;;;;;11.33;100.00;100266.38;5007487;28;20198;-81
2023/09/23 05:51:39;;;;;;;3.43;1.60;;;;;;;11.42;100.00;100264.69;5007823;28;20579;-78
2023/09/23 05:54:08;;;;;;;4.70;1.60;;;;;;;11.55;100.00;100273.59;5006367;28;20784;-76
2023/09/23 05:56:35;;;;;;;2.17;1.60;;;;;;;11.60;100.00;100272.75;5007368;28;20254;-77
2023/09/23 05:59:02;;;;;;;3.50;1.97;;;;;;;11.66;100.00;100271.06;5009076;28;20298;-74
2023/09/23 06:01:29;;;;;;;3.03;1.60;;;;;;;11.69;100.00;100281.69;4990367;28;20673;-73
2023/09/23 06:03:56;;;;;;;3.37;1.90;;;;;;;11.70;100.00;100284.34;5002258;28;20741;-75
2023/09/23 06:06:23;;;;;;;2.33;1.70;;;;;;;11.61;100.00;100279.88;5006734;28;20314;-74
2023/09/23 06:08:50;;;;;;;1.77;1.50;;;;;;;11.57;100.00;100278.03;5007848;28;20210;-73
2023/09/23 06:11:17;;;;;;;2.77;1.67;;;;;;;11.54;100.00;100275.38;5008392;28;20650;-75
2023/09/23 06:13:44;;;;;;;2.47;1.50;;;;;;;11.55;100.00;100278.91;5002845;28;20707;-73
2023/09/23 06:16:11;;;;;;;3.33;1.93;;;;;;;11.40;100.00;100271.72;5014082;28;20218;-75
2023/09/23 06:18:37;;;;;;;3.17;1.40;;;;;;;11.35;100.00;100281.41;5006184;28;20208;-79
2023/09/23 06:21:06;;;;;;;2.20;1.77;;;;;;;11.24;100.00;100289.28;5004292;28;20201;-78
2023/09/23 06:23:32;;;;;;;4.60;1.90;;;;;;;11.17;100.00;100297.13;5005090;28;20586;-80
2023/09/23 06:26:02;;;;;;;2.80;1.80;;;;;;;11.18;100.00;100310.41;5004375;28;20670;-80
2023/09/23 06:28:32;;;;;;;2.23;1.93;;;;;;;11.17;100.00;100313.03;5005108;28;20198;-80
2023/09/23 06:30:58;;;;;;;2.03;1.80;;;;;;;11.31;100.00;100316.75;5000506;28;20219;-79
2023/09/23 06:33:25;;;;;;;3.37;2.30;;;;;;;11.43;100.00;100314.19;5002469;28;20206;-81
2023/09/23 06:35:52;;;;;;;2.63;1.93;;;;;;;11.60;100.00;100314.31;5002141;28;20288;-80
2023/09/23 06:38:18;;;;;;;3.20;2.07;;;;;;;11.73;100.00;100321.50;5003960;28;20205;-80
2023/09/23 06:40:45;;;;;;;3.27;2.30;;;;;;;11.79;100.00;100320.69;5007863;28;20256;-79
2023/09/23 06:43:12;;;;;;;3.30;1.80;;;;;;;11.80;100.00;100326.00;5008395;28;20261;-82
2023/09/23 06:45:39;;;;;;;2.90;2.10;;;;;;;11.84;100.00;100333.13;5002224;28;20219;-81
2023/09/23 06:48:05;;;;;;;4.40;2.33;;;;;;;11.91;100.00;100337.59;5005232;28;20598;-81
2023/09/23 06:50:32;;;;;;;2.97;2.23;;;;;;;12.11;100.00;100336.84;5008852;28;20642;-81
2023/09/23 06:52:58;;;;;;;2.67;1.80;;;;;;;12.17;100.00;100334.22;5004348;28;20205;-78
2023/09/23 06:55:25;;;;;;;2.93;2.10;;;;;;;12.20;100.00;100350.16;5005322;28;20272;-81
2023/09/23 06:57:51;;;;;;;4.67;1.70;;;;;;;12.28;100.00;100351.09;4989133;28;20203;-79
2023/09/23 07:00:18;;;;;;;4.23;2.00;;;;;;;12.28;100.00;100352.88;5010834;28;20269;-81
2023/09/23 07:02:44;;;;;;;5.10;1.90;;;;;;;12.25;100.00;100359.06;5012846;28;20288;-82
2023/09/23 07:05:11;;;;;;;4.30;2.50;;;;;;;12.29;100.00;100358.19;5008918;28;20240;-80
2023/09/23 07:07:37;;;;;;;2.20;1.80;;;;;;;12.43;100.00;100358.28;5006386;28;20209;-80
2023/09/23 07:10:04;;;;;;;3.63;1.80;;;;;;;12.52;100.00;100353.00;5011184;28;20701;-80
2023/09/23 07:12:31;;;;;;;5.73;1.90;;;;;;;12.66;100.00;100361.91;5012280;28;20203;-79
2023/09/23 07:14:58;;;;;;;6.17;2.30;;;;;;;12.76;100.00;100355.75;5005731;28;20225;-80
2023/09/23 07:17:25;;;;;;;5.93;2.57;;;;;;;13.12;100.00;100368.28;5011400;28;20205;-80
2023/09/23 07:19:52;;;;;;;4.47;2.03;;;;;;;13.41;100.00;100370.16;5010279;28;20226;-77
2023/09/23 07:22:19;;;;;;;4.30;2.10;;;;;;;13.45;100.00;100369.28;5013785;28;20274;-76
2023/09/23 07:24:46;;;;;;;4.20;2.13;;;;;;;13.77;100.00;100377.28;5012539;28;20223;-76
2023/09/23 07:27:13;;;;;;;4.40;2.57;;;;;;;13.54;100.00;100390.56;5007139;28;20679;-75
2023/09/23 07:29:39;;;;;;;3.83;2.53;;;;;;;13.34;100.00;100387.00;4993088;28;20198;-75
2023/09/23 07:32:05;;;;;;;5.63;2.30;;;;;;;13.30;100.00;100387.88;5008672;28;20200;-75
2023/09/23 07:34:32;;;;;;;2.97;2.40;;;;;;;13.01;100.00;100385.97;5009651;28;20223;-75
2023/09/23 07:36:58;;;;;;;3.33;2.30;;;;;;;13.11;100.00;100384.25;4995792;28;20211;-76
2023/09/23 07:39:25;;;;;;;3.70;2.23;;;;;;;13.17;100.00;100389.59;5009941;28;20286;-75
2023/09/23 07:41:51;;;;;;;3.00;2.50;;;;;;;13.24;100.00;100390.53;5008367;28;20935;-76
2023/09/23 07:44:18;;;;;;;3.53;2.20;;;;;;;13.25;100.00;100394.97;5008782;28;20663;-74
2023/09/23 07:46:44;;;;;;;3.10;2.20;;;;;;;13.25;100.00;100406.50;5002219;28;20653;-74
2023/09/23 07:49:11;;;;;;;4.47;2.40;;;;;;;13.30;100.00;100407.38;5014796;28;20202;-77
2023/09/23 07:51:37;;;;;;;5.43;2.63;;;;;;;13.35;100.00;100410.06;5009875;28;20736;-74
2023/09/23 07:54:04;;;;;;;4.80;2.47;;;;;;;13.37;100.00;100413.59;5013466;28;20239;-73
2023/09/23 07:56:30;;;;;;;4.00;2.30;;;;;;;13.55;100.00;100412.75;5008728;28;20208;-75
2023/09/23 07:58:56;;;;;;;3.53;2.23;;;;;;;13.71;100.00;100420.78;5010439;28;20286;-72
2023/09/23 08:01:23;;;;;;;4.93;2.13;;;;;;;13.75;100.00;100424.31;4995801;28;20207;-72
2023/09/23 08:03:51;;;;;;;2.87;1.90;;;;;;;13.58;100.00;100426.94;4994642;28;20254;-72
2023/09/23 08:06:17;;;;;;;3.23;2.03;;;;;;;13.69;100.00;100429.63;5010796;28;20211;-73
2023/09/23 08:08:44;;;;;;;3.30;2.27;;;;;;;13.85;100.00;100414.56;5004409;28;20208;-73
2023/09/23 08:11:10;;;;;;;3.17;2.23;;;;;;;14.05;100.00;100423.44;4991335;28;20307;-72
2023/09/23 08:13:37;;;;;;;4.70;1.87;;;;;;;14.01;100.00;100433.22;5014908;28;20728;-71
2023/09/23 08:16:03;;;;;;;3.23;1.90;;;;;;;13.90;100.00;100442.94;5018279;28;20231;-71
2023/09/23 08:18:30;;;;;;;3.47;2.10;;;;;;;13.95;100.00;100449.16;4995960;28;20210;-70
2023/09/23 08:21:00;;;;;;;3.23;2.10;;;;;;;13.92;100.00;100445.63;5016504;28;20712;-70
2023/09/23 08:23:27;;;;;;;4.07;2.10;;;;;;;13.94;100.00;100447.38;5015330;28;20200;-70
2023/09/23 08:25:54;;;;;;;2.40;1.87;;;;;;;14.01;100.00;100441.22;5017192;28;21253;-70
2023/09/23 08:28:20;;;;;;;3.30;1.90;;;;;;;14.30;100.00;100442.94;5012731;28;20215;-70
2023/09/23 08:30:49;;;;;;;3.67;2.00;;;;;;;14.46;100.00;100447.44;5012054;28;20682;-72
2023/09/23 08:33:16;;;;;;;2.80;1.73;;;;;;;14.49;100.00;100446.53;5014617;28;20212;-71
2023/09/23 08:35:47;;;;;;;4.07;1.63;;;;;;;14.36;100.00;100449.16;5009924;28;20226;-72
2023/09/23 08:38:14;;;;;;;2.40;1.60;;;;;;;14.53;100.00;100442.97;5013075;28;20297;-71
2023/09/23 08:40:43;;;;;;;3.67;1.80;;;;;;;14.45;100.00;100453.66;4998119;28;20286;-72
2023/09/23 08:43:09;;;;;;;1.70;1.20;;;;;;;14.38;100.00;100443.81;5009152;28;20604;-72
2023/09/23 08:45:43;;;;;;;2.33;1.27;;;;;;;14.37;100.00;100445.59;5011461;28;20740;-72
2023/09/23 08:48:11;;;;;;;4.53;1.40;;;;;;;14.45;100.00;100448.31;5005955;28;20235;-70
2023/09/23 08:50:46;;;;;;;1.83;1.20;;;;;;;14.62;100.00;100451.81;5010412;28;20220;-71
2023/09/23 08:53:16;;;;;;;1.77;1.30;;;;;;;14.80;100.00;100442.88;5019877;28;20302;-71
2023/09/23 08:55:44;;;;;;;1.90;1.10;;;;;;;14.73;100.00;100449.13;5008620;28;20232;-71
2023/09/23 08:58:11;;;;;;;2.23;1.00;;;;;;;14.90;100.00;100460.66;5007340;28;20204;-72
2023/09/23 09:00:44;;;;;;;1.83;1.20;;;;;;;14.99;100.00;100468.63;5010532;28;20707;-70
2023/09/23 09:03:11;;;;;;;1.73;1.10;;;;;;;15.07;100.00;100460.59;5010157;28;20200;-72
2023/09/23 09:05:39;;;;;;;2.63;1.20;;;;;;;15.31;100.00;100473.84;5011432;28;20225;-71
2023/09/23 09:08:06;;;;;;;2.00;1.20;;;;;;;15.61;100.00;100478.16;4987153;28;20683;-71
2023/09/23 09:10:33;;;;;;;2.47;1.30;;;;;;;15.94;100.00;100469.03;4988399;28;20224;-70
2023/09/23 09:13:02;;;;;;;1.83;1.20;;;;;;;16.51;100.00;100471.25;5005949;28;20200;-68
2023/09/23 09:15:32;;;;;;;1.90;1.20;;;;;;;16.96;100.00;100463.69;5013310;28;20591;-71
2023/09/23 09:17:59;;;;;;;4.40;1.33;;;;;;;17.42;97.09;100466.66;4987624;28;20203;-70
2023/09/23 09:20:25;;;;;;;3.73;1.27;;;;;;;17.93;92.14;100472.22;5002697;28;20676;-70
2023/09/23 09:22:52;;;;;;;2.50;1.00;;;;;;;18.30;85.73;100473.41;5004420;28;20668;-70
2023/09/23 09:25:20;;;;;;;2.57;1.30;;;;;;;18.85;82.09;100479.63;5011468;28;20223;-70
2023/09/23 09:27:48;;;;;;;2.20;1.03;;;;;;;19.19;79.54;100487.88;5013549;28;20299;-70
2023/09/23 09:30:14;;;;;;;6.27;1.53;;;;;;;19.00;77.77;100484.69;5006832;28;20231;-70
2023/09/23 09:32:42;;;;;;;2.30;1.00;;;;;;;19.01;78.52;100486.47;5008764;28;20204;-69
2023/09/23 09:35:28;;;;;;;2.17;1.03;;;;;;;18.91;77.03;100482.19;5009743;28;20252;-70
2023/09/23 09:37:59;;;;;;;1.37;0.90;;;;;;;18.92;77.81;100482.16;4989338;28;20204;-70
2023/09/23 09:40:43;;;;;;;1.53;1.20;;;;;;;18.72;78.02;100479.84;4999133;28;20754;-69
2023/09/23 09:43:10;;;;;;;2.07;1.07;;;;;;;18.06;82.08;100480.06;5013849;28;20204;-69
2023/09/23 09:45:40;;;;;;;5.43;1.20;;;;;;;18.14;84.74;100493.34;5000670;28;20223;-70
2023/09/23 09:48:08;;;;;;;3.23;1.00;;;;;;;18.08;84.14;100488.97;5011462;28;20227;-70
2023/09/23 09:50:38;;;;;;;1.47;1.00;;;;;;;17.91;84.27;100492.78;5005852;28;20232;-70
2023/09/23 09:53:08;;;;;;;2.07;0.90;;;;;;;17.96;86.60;100496.28;5017449;28;20687;-71
2023/09/23 09:55:35;;;;;;;2.47;1.30;;;;;;;18.21;84.66;100496.81;5011224;28;20240;-71
2023/09/23 09:58:01;;;;;;;1.93;1.23;;;;;;;18.46;81.79;100503.53;5006406;28;20349;-70
2023/09/23 10:00:28;;;;;;;2.73;1.10;;;;;;;18.74;78.73;100491.44;5010816;28;20202;-70
2023/09/23 10:03:08;;;;;;;3.07;1.10;;;;;;;18.91;77.62;100499.19;5012118;28;20208;-70
2023/09/23 10:05:41;;;;;;;4.23;1.17;;;;;;;18.70;79.22;100503.13;4997562;28;20221;-71
2023/09/23 10:08:18;;;;;;;1.83;1.20;;;;;;;18.51;78.86;100498.09;5007343;28;20200;-70
2023/09/23 10:10:47;;;;;;;4.20;1.33;;;;;;;18.25;83.11;100501.19;5006415;28;20668;-71
2023/09/23 10:13:22;;;;;;;2.87;1.20;;;;;;;18.28;82.91;100503.81;5023046;28;20200;-71
2023/09/23 10:15:48;;;;;;;2.93;1.40;;;;;;;18.23;85.78;100505.69;5018339;28;20245;-70
2023/09/23 10:18:19;;;;;;;2.63;1.20;;;;;;;18.17;83.21;100501.34;4991851;28;20199;-70
2023/09/23 10:20:56;;;;;;;2.00;1.27;;;;;;;18.19;84.89;100499.50;5004439;28;20603;-69
2023/09/23 10:23:22;;;;;;;1.77;1.30;;;;;;;18.43;80.39;100491.06;5009081;28;20203;-70
2023/09/23 10:25:51;;;;;;;2.97;1.50;;;;;;;18.60;80.21;100493.44;5019213;28;20203;-70
2023/09/23 10:28:26;;;;;;;1.93;1.20;;;;;;;18.93;78.06;100491.09;5006043;28;20212;-70
2023/09/23 10:30:58;;;;;;;2.22;1.00;;;;;;;19.13;76.83;100494.25;5005649;28;20306;-68
2023/09/23 10:33:27;;;;;;;3.37;1.00;;;;;;;19.11;74.25;100496.09;4995904;28;20227;-70
2023/09/23 10:35:53;;;;;;;2.70;1.10;;;;;;;19.07;75.44;100494.38;4987929;28;20205;-71
2023/09/23 10:38:24;;;;;;;1.50;1.00;;;;;;;19.29;74.47;100498.44;5006632;28;20232;-71
2023/09/23 10:40:53;;;;;;;2.35;1.58;;;;;;;19.85;72.53;100500.81;5002191;28;20552;-71
2023/09/23 10:43:21;;;;;;;2.08;0.90;;;;;;;20.31;68.83;100493.44;5019465;28;20253;-71
2023/09/23 10:45:58;;;;;;;1.83;1.02;;;;;;;20.62;65.43;100490.88;5015535;28;20201;-71
2023/09/23 10:48:25;;;;;;;2.65;1.17;;;;;;;20.94;63.57;100498.09;5011606;28;20199;-72
2023/09/23 10:50:52;;;;;;;3.85;1.13;;;;;;;20.93;63.47;100490.97;5003143;28;20224;-71
2023/09/23 10:53:21;;;;;;;1.65;1.08;;;;;;;21.00;61.80;100490.78;5002539;28;20290;-71
2023/09/23 10:55:49;;;;;;;2.75;1.20;;;;;;;21.19;63.12;100498.28;4986252;28;20200;-71
2023/09/23 10:58:16;;;;;;;4.45;1.40;;;;;;;21.19;60.33;100500.09;5002765;28;20204;-71
2023/09/23 11:00:43;;;;;;;2.53;1.40;;;;;;;20.62;61.71;100508.84;5002694;28;20603;-71
2023/09/23 11:03:11;;;;;;;3.10;1.75;;;;;;;20.95;62.41;100507.06;5004742;28;20699;-71
2023/09/23 11:05:38;;;;;;;3.20;1.50;;;;;;;20.74;61.56;100500.44;5004462;28;20303;-71
2023/09/23 11:08:07;;;;;;;2.90;0.90;;;;;;;21.03;60.21;100504.16;4984915;28;20679;-71
2023/09/23 11:10:38;;;;;;;3.63;1.25;;;;;;;21.67;61.48;100500.53;5005115;28;20201;-71
2023/09/23 11:13:11;;;;;;;2.35;1.20;;;;;;;21.92;58.98;100506.03;5013466;28;20210;-72
2023/09/23 11:15:44;;;;;;;3.78;1.70;;;;;;;21.84;58.65;100502.69;5003957;28;20266;-71
2023/09/23 11:18:13;;;;;;;2.53;0.95;;;;;;;21.84;56.74;100503.59;5003708;28;20212;-71
2023/09/23 11:20:42;;;;;;;2.15;0.90;;;;;;;21.79;56.31;100501.97;5001757;28;20259;-72
2023/09/23 11:23:10;;;;;;;2.47;1.10;;;;;;;21.50;57.86;100506.41;5001850;28;20660;-71
2023/09/23 11:25:45;;;;;;;1.85;1.10;;;;;;;21.70;57.98;100505.81;5002360;28;20224;-71
2023/09/23 11:28:22;;;;;;;2.30;1.05;;;;;;;21.47;56.51;100502.94;5001030;28;20570;-71
2023/09/23 11:30:50;;;;;;;4.30;1.40;;;;;;;21.16;56.06;100506.47;5005947;28;20228;-71
2023/09/23 11:33:17;;;;;;;1.60;0.90;;;;;;;21.52;55.05;100506.38;5001023;28;20205;-71